createdAt,value
2023-02-06T00:00:54.116Z,17.50
2023-02-06T00:01:54.104Z,18.90
2023-02-06T00:02:54.103Z,18.30
2023-02-06T00:03:54.165Z,18.30
2023-02-06T00:04:54.981Z,18.50
2023-02-06T00:05:54.123Z,17.80
2023-02-06T00:06:54.298Z,18.20
2023-02-06T00:07:54.312Z,21.90
2023-02-06T00:08:54.122Z,16.80
2023-02-06T00:09:55.023Z,18.60
2023-02-06T00:10:54.064Z,22.80
2023-02-06T00:11:54.045Z,17.90
2023-02-06T00:12:54.033Z,17.90
2023-02-06T00:13:54.043Z,17.50
2023-02-06T00:14:54.493Z,15.30
2023-02-06T00:15:54.055Z,19.80
2023-02-06T00:16:54.200Z,18.90
2023-02-06T00:17:55.013Z,18.50
2023-02-06T00:18:54.289Z,22.20
2023-02-06T00:19:54.126Z,20.90
2023-02-06T00:20:54.111Z,18.50
2023-02-06T00:21:54.881Z,20.30
2023-02-06T00:22:54.786Z,19.10
2023-02-06T00:23:53.975Z,24.90
2023-02-06T00:24:53.958Z,21.00
2023-02-06T00:25:53.946Z,24.00
2023-02-06T00:26:53.947Z,18.40
2023-02-06T00:27:53.951Z,20.00
2023-02-06T00:28:53.944Z,18.60
2023-02-06T00:29:53.927Z,21.80
2023-02-06T00:30:53.972Z,20.60
2023-02-06T00:31:53.942Z,20.30
2023-02-06T00:32:53.971Z,21.10
2023-02-06T00:33:53.917Z,20.70
2023-02-06T00:34:53.956Z,18.00
2023-02-06T00:35:53.967Z,22.90
2023-02-06T00:36:53.980Z,19.00
2023-02-06T00:37:53.858Z,19.70
2023-02-06T00:38:53.876Z,23.40
2023-02-06T00:39:53.861Z,23.30
2023-02-06T00:40:53.859Z,21.60
2023-02-06T00:41:53.849Z,22.90
2023-02-06T00:42:53.827Z,21.00
2023-02-06T00:43:53.862Z,23.40
2023-02-06T00:44:53.820Z,21.50
2023-02-06T00:45:53.828Z,19.60
2023-02-06T00:46:53.868Z,19.30
2023-02-06T00:47:53.897Z,19.80
2023-02-06T00:48:53.807Z,24.60
2023-02-06T00:49:53.794Z,23.50
2023-02-06T00:50:53.833Z,25.00
2023-02-06T00:51:54.286Z,22.90
2023-02-06T00:52:54.296Z,19.50
2023-02-06T00:53:54.304Z,25.60
2023-02-06T00:54:54.307Z,26.20
2023-02-06T00:55:53.776Z,22.80
2023-02-06T00:56:53.756Z,23.10
2023-02-06T00:57:54.326Z,22.10
2023-02-06T00:58:53.782Z,29.00
2023-02-06T00:59:53.724Z,19.30
2023-02-06T01:00:53.746Z,22.60
2023-02-06T01:01:53.746Z,24.50
2023-02-06T01:02:53.759Z,23.60
2023-02-06T01:03:53.734Z,21.50
2023-02-06T01:04:53.706Z,25.70
2023-02-06T01:05:53.697Z,30.30
2023-02-06T01:06:54.027Z,30.70
2023-02-06T01:07:54.028Z,26.40
2023-02-06T01:08:53.979Z,21.80
2023-02-06T01:09:53.678Z,26.80
2023-02-06T01:10:53.656Z,24.10
2023-02-06T01:11:54.226Z,27.80
2023-02-06T01:12:53.652Z,25.80
2023-02-06T01:13:54.433Z,26.40
2023-02-06T01:14:54.223Z,27.70
2023-02-06T01:15:54.475Z,27.00
2023-02-06T01:16:54.457Z,31.40
2023-02-06T01:17:54.513Z,24.70
2023-02-06T01:18:54.519Z,29.60
2023-02-06T01:19:54.438Z,25.10
2023-02-06T01:20:54.536Z,21.00
2023-02-06T01:21:54.502Z,30.50
2023-02-06T01:22:53.733Z,33.30
2023-02-06T01:23:54.569Z,26.00
2023-02-06T01:24:54.351Z,28.60
2023-02-06T01:25:53.680Z,29.50
2023-02-06T01:26:54.529Z,29.20
2023-02-06T01:27:53.680Z,30.60
2023-02-06T01:28:54.595Z,23.90
2023-02-06T01:29:53.736Z,30.30
2023-02-06T01:30:54.419Z,30.30
2023-02-06T01:31:53.626Z,34.20
2023-02-06T01:32:53.745Z,29.70
2023-02-06T01:33:53.588Z,36.80
2023-02-06T01:34:53.505Z,29.20
2023-02-06T01:35:53.567Z,28.00
2023-02-06T01:36:53.496Z,33.80
2023-02-06T01:37:53.581Z,32.90
2023-02-06T01:43:11.372Z,33.20
2023-02-06T01:44:11.374Z,33.90
2023-02-06T01:45:11.359Z,30.50
2023-02-06T01:46:11.341Z,41.40
2023-02-06T01:47:11.348Z,36.80
2023-02-06T01:48:11.342Z,36.30
2023-02-06T01:49:11.332Z,36.30
2023-02-06T01:50:11.665Z,38.40
2023-02-06T01:51:12.000Z,33.70
2023-02-06T01:52:11.308Z,33.70
2023-02-06T01:53:11.300Z,40.40
2023-02-06T01:54:11.309Z,31.60
2023-02-06T01:55:11.292Z,34.80
2023-02-06T01:56:11.290Z,32.00
2023-02-06T01:57:11.292Z,33.50
2023-02-06T01:58:11.272Z,39.00
2023-02-06T01:59:11.484Z,34.10
2023-02-06T02:00:11.270Z,36.60
2023-02-06T02:01:11.985Z,33.40
2023-02-06T02:02:11.268Z,31.50
2023-02-06T02:03:12.067Z,37.00
2023-02-06T02:04:11.759Z,35.90
2023-02-06T02:05:11.249Z,33.80
2023-02-06T02:06:11.234Z,35.10
2023-02-06T02:07:11.215Z,37.60
2023-02-06T02:08:11.647Z,36.50
2023-02-06T02:09:11.227Z,31.70
2023-02-06T02:10:11.194Z,34.80
2023-02-06T02:11:11.186Z,34.20
2023-02-06T02:12:11.236Z,32.90
2023-02-06T02:13:11.197Z,33.40
2023-02-06T02:14:11.185Z,31.10
2023-02-06T02:15:11.163Z,40.30
2023-02-06T02:16:11.214Z,37.40
2023-02-06T02:17:11.307Z,34.80
2023-02-06T02:18:11.146Z,31.00
2023-02-06T02:19:11.450Z,32.50
2023-02-06T02:20:11.143Z,30.60
2023-02-06T02:21:11.459Z,29.70
2023-02-06T02:22:11.340Z,32.70
2023-02-06T02:23:11.558Z,31.60
2023-02-06T02:24:11.688Z,28.50
2023-02-06T02:25:11.109Z,41.30
2023-02-06T02:26:11.123Z,33.40
2023-02-06T02:27:11.167Z,32.90
2023-02-06T02:28:11.145Z,37.30
2023-02-06T02:29:11.112Z,34.50
2023-02-06T02:30:11.117Z,34.10
2023-02-06T02:31:11.120Z,33.20
2023-02-06T02:32:11.068Z,34.30
2023-02-06T02:33:11.064Z,33.60
2023-02-06T02:34:11.095Z,29.90
2023-02-06T02:35:11.576Z,35.50
2023-02-06T02:36:11.584Z,39.70
2023-02-06T02:37:11.596Z,39.10
2023-02-06T02:38:11.596Z,37.00
2023-02-06T02:39:11.084Z,31.70
2023-02-06T02:40:11.032Z,30.30
2023-02-06T02:41:11.614Z,36.30
2023-02-06T02:42:11.033Z,40.80
2023-02-06T02:43:11.000Z,39.30
2023-02-06T02:44:11.625Z,31.10
2023-02-06T02:45:10.982Z,36.90
2023-02-06T02:46:11.739Z,38.00
2023-02-06T02:47:10.970Z,35.20
2023-02-06T02:48:11.857Z,36.40
2023-02-06T02:49:11.858Z,29.70
2023-02-06T02:50:11.449Z,28.00
2023-02-06T02:51:11.809Z,37.20
2023-02-06T02:52:10.966Z,34.40
2023-02-06T02:53:10.945Z,36.50
2023-02-06T02:54:10.972Z,34.40
2023-02-06T02:55:10.925Z,33.00
2023-02-06T02:56:10.925Z,36.20
2023-02-06T02:57:10.943Z,38.30
2023-02-06T02:58:10.908Z,39.90
2023-02-06T02:59:11.119Z,41.70
2023-02-06T03:00:11.084Z,33.90
2023-02-06T03:01:10.892Z,33.40
2023-02-06T03:02:10.924Z,38.50
2023-02-06T03:03:10.861Z,42.30
2023-02-06T03:04:10.930Z,41.10
2023-02-06T03:05:10.850Z,41.00
2023-02-06T03:06:10.939Z,32.00
2023-02-06T03:07:10.845Z,38.10
2023-02-06T03:08:10.838Z,35.90
2023-02-06T03:09:10.838Z,42.50
2023-02-06T03:10:10.821Z,36.70
2023-02-06T03:11:11.086Z,34.50
2023-02-06T03:12:10.829Z,34.60
2023-02-06T03:13:10.872Z,35.50
2023-02-06T03:14:10.806Z,35.60
2023-02-06T03:15:10.787Z,41.80
2023-02-06T03:16:10.811Z,38.80
2023-02-06T03:17:10.810Z,36.00
2023-02-06T03:18:10.773Z,35.00
2023-02-06T03:19:10.796Z,38.70
2023-02-06T03:20:10.754Z,34.20
2023-02-06T03:21:10.745Z,37.60
2023-02-06T03:22:10.744Z,39.90
2023-02-06T03:23:10.735Z,35.10
2023-02-06T03:24:10.734Z,36.10
2023-02-06T03:25:11.076Z,32.20
2023-02-06T03:26:10.725Z,36.90
2023-02-06T03:27:10.785Z,39.50
2023-02-06T03:28:10.767Z,40.70
2023-02-06T03:29:10.694Z,36.00
2023-02-06T03:30:10.740Z,31.30
2023-02-06T03:31:10.695Z,38.60
2023-02-06T03:32:10.705Z,35.00
2023-02-06T03:33:10.672Z,43.60
2023-02-06T03:34:10.823Z,33.90
2023-02-06T03:35:10.672Z,39.10
2023-02-06T03:36:10.661Z,38.00
2023-02-06T03:37:10.651Z,38.50
2023-02-06T03:38:10.663Z,28.50
2023-02-06T03:39:10.631Z,40.00
2023-02-06T03:40:10.652Z,44.90
2023-02-06T03:41:10.639Z,41.40
2023-02-06T03:42:10.636Z,43.50
2023-02-06T03:43:10.619Z,41.10
2023-02-06T03:44:10.621Z,40.40
2023-02-06T03:45:10.698Z,41.80
2023-02-06T03:46:10.730Z,38.90
2023-02-06T03:47:10.839Z,38.20
2023-02-06T03:48:10.596Z,41.20
2023-02-06T03:49:10.584Z,36.80
2023-02-06T03:50:10.747Z,42.60
2023-02-06T03:51:10.562Z,40.80
2023-02-06T03:52:10.560Z,32.30
2023-02-06T03:53:10.558Z,39.40
2023-02-06T03:54:11.388Z,44.40
2023-02-06T03:55:11.179Z,44.00
2023-02-06T03:56:10.689Z,41.90
2023-02-06T03:57:10.548Z,37.70
2023-02-06T03:58:10.529Z,35.10
2023-02-06T03:59:10.529Z,31.50
2023-02-06T04:00:10.530Z,39.60
2023-02-06T04:01:10.558Z,37.70
2023-02-06T04:02:10.535Z,31.40
2023-02-06T04:03:10.498Z,39.10
2023-02-06T04:04:11.459Z,42.20
2023-02-06T04:05:10.509Z,34.40
2023-02-06T04:06:10.671Z,41.20
2023-02-06T04:07:10.486Z,36.80
2023-02-06T04:08:10.488Z,36.30
2023-02-06T04:09:10.469Z,46.40
2023-02-06T04:10:10.482Z,34.30
2023-02-06T04:11:10.486Z,36.00
2023-02-06T04:12:10.469Z,37.00
2023-02-06T04:13:10.449Z,32.10
2023-02-06T04:14:10.707Z,41.70
2023-02-06T04:15:10.431Z,37.60
2023-02-06T04:16:10.509Z,34.60
2023-02-06T04:17:10.448Z,32.60
2023-02-06T04:18:10.410Z,49.30
2023-02-06T04:19:10.396Z,40.60
2023-02-06T04:20:10.413Z,35.60
2023-02-06T04:21:11.050Z,34.20
2023-02-06T04:22:10.406Z,39.70
2023-02-06T04:23:11.184Z,46.80
2023-02-06T04:24:11.196Z,40.30
2023-02-06T04:25:11.195Z,38.30
2023-02-06T04:26:10.794Z,38.00
2023-02-06T04:27:10.419Z,48.70
2023-02-06T04:28:10.466Z,39.50
2023-02-06T04:29:10.614Z,43.30
2023-02-06T04:30:11.263Z,43.30
2023-02-06T04:31:11.278Z,42.80
2023-02-06T04:32:10.381Z,35.00
2023-02-06T04:33:11.240Z,44.10
2023-02-06T04:34:11.142Z,44.90
2023-02-06T04:35:11.132Z,40.90
2023-02-06T04:36:10.748Z,37.90
2023-02-06T04:37:10.871Z,48.20
2023-02-06T04:38:11.288Z,40.80
2023-02-06T04:39:11.157Z,46.10
2023-02-06T04:40:11.261Z,45.20
2023-02-06T04:41:11.255Z,41.60
2023-02-06T04:42:10.279Z,40.00
2023-02-06T04:43:10.290Z,45.80
2023-02-06T04:44:10.280Z,45.20
2023-02-06T04:45:10.249Z,42.10
2023-02-06T04:46:10.345Z,42.10
2023-02-06T04:47:10.240Z,44.70
2023-02-06T04:48:10.325Z,49.90
2023-02-06T04:49:10.335Z,45.90
2023-02-06T04:50:10.336Z,45.90
2023-02-06T04:51:10.218Z,43.20
2023-02-06T04:52:10.187Z,47.50
2023-02-06T04:53:10.356Z,46.00
2023-02-06T04:54:10.183Z,51.20
2023-02-06T04:55:10.208Z,51.10
2023-02-06T04:56:10.181Z,46.00
2023-02-06T04:57:10.386Z,48.40
2023-02-06T04:58:10.256Z,47.30
2023-02-06T04:59:10.513Z,46.40
2023-02-06T05:00:10.153Z,53.00
2023-02-06T05:01:10.254Z,52.20
2023-02-06T05:02:10.411Z,48.70
2023-02-06T05:03:10.223Z,50.10
2023-02-06T05:04:10.241Z,51.70
2023-02-06T05:05:10.129Z,51.90
2023-02-06T05:06:10.109Z,49.70
2023-02-06T05:07:10.251Z,54.90
2023-02-06T05:08:10.247Z,57.40
2023-02-06T05:09:10.095Z,52.10
2023-02-06T05:10:10.481Z,53.50
2023-02-06T05:11:10.139Z,50.80
2023-02-06T05:12:11.623Z,45.20
2023-02-06T05:13:10.495Z,59.60
2023-02-06T05:14:10.568Z,51.80
2023-02-06T05:15:10.577Z,52.10
2023-02-06T05:16:10.172Z,50.10
2023-02-06T05:17:10.172Z,47.30
2023-02-06T05:18:10.172Z,56.80
2023-02-06T05:19:10.121Z,51.60
2023-02-06T05:20:10.035Z,47.30
2023-02-06T05:21:10.140Z,55.40
2023-02-06T05:22:10.037Z,56.20
2023-02-06T05:23:10.149Z,53.10
2023-02-06T05:24:10.226Z,54.20
2023-02-06T05:25:10.381Z,50.70
2023-02-06T05:26:09.978Z,49.80
2023-02-06T05:27:09.980Z,50.80
2023-02-06T05:28:10.190Z,52.90
2023-02-06T05:29:10.002Z,50.80
2023-02-06T05:30:09.978Z,49.40
2023-02-06T05:31:10.111Z,53.70
2023-02-06T05:32:10.066Z,55.00
2023-02-06T05:33:10.425Z,48.10
2023-02-06T05:34:09.968Z,55.00
2023-02-06T05:35:09.932Z,56.70
2023-02-06T05:36:10.038Z,50.90
2023-02-06T05:37:10.046Z,54.70
2023-02-06T05:38:09.964Z,54.30
2023-02-06T05:39:09.946Z,56.80
2023-02-06T05:40:09.924Z,55.90
2023-02-06T05:41:09.937Z,57.50
2023-02-06T05:42:10.023Z,54.90
2023-02-06T05:43:10.026Z,56.80
2023-02-06T05:44:10.050Z,55.00
2023-02-06T05:45:10.060Z,55.10
2023-02-06T05:46:09.906Z,55.70
2023-02-06T05:47:10.090Z,55.40
2023-02-06T05:48:09.861Z,54.50
2023-02-06T05:49:10.096Z,55.80
2023-02-06T05:50:10.127Z,54.60
2023-02-06T05:51:10.064Z,55.70
2023-02-06T05:52:09.847Z,54.80
2023-02-06T05:53:09.813Z,57.00
2023-02-06T05:54:09.863Z,58.20
2023-02-06T05:55:09.844Z,54.20
2023-02-06T05:56:09.845Z,54.00
2023-02-06T05:57:09.787Z,52.00
2023-02-06T05:58:09.780Z,56.90
2023-02-06T05:59:09.867Z,52.50
2023-02-06T06:00:09.798Z,60.30
2023-02-06T06:01:09.765Z,52.40
2023-02-06T06:02:09.754Z,56.20
2023-02-06T06:03:09.888Z,54.20
2023-02-06T06:04:09.966Z,46.60
2023-02-06T06:05:09.935Z,44.50
2023-02-06T06:06:09.925Z,48.30
2023-02-06T06:07:09.752Z,54.00
2023-02-06T06:08:09.714Z,50.40
2023-02-06T06:09:09.964Z,53.00
2023-02-06T06:10:09.739Z,51.00
2023-02-06T06:11:09.993Z,56.80
2023-02-06T06:12:10.021Z,47.20
2023-02-06T06:13:09.733Z,45.50
2023-02-06T06:14:10.035Z,60.20
2023-02-06T06:15:10.042Z,58.40
2023-02-06T06:16:09.812Z,63.90
2023-02-06T06:17:09.673Z,55.40
2023-02-06T06:18:10.081Z,63.70
2023-02-06T06:19:09.791Z,56.80
2023-02-06T06:20:10.117Z,64.80
2023-02-06T06:21:10.121Z,60.90
2023-02-06T06:22:10.051Z,58.40
2023-02-06T06:23:10.152Z,61.90
2023-02-06T06:24:09.822Z,60.20
2023-02-06T06:25:10.150Z,50.20
2023-02-06T06:26:09.790Z,54.10
2023-02-06T06:27:09.930Z,55.90
2023-02-06T06:28:10.644Z,50.40
2023-02-06T06:29:10.152Z,61.40
2023-02-06T06:30:09.639Z,57.10
2023-02-06T06:31:10.006Z,57.80
2023-02-06T06:32:09.655Z,66.90
2023-02-06T06:33:09.595Z,59.60
2023-02-06T06:34:09.585Z,61.10
2023-02-06T06:35:09.605Z,59.80
2023-02-06T06:36:09.634Z,65.10
2023-02-06T06:37:09.702Z,59.30
2023-02-06T06:38:09.724Z,50.20
2023-02-06T06:39:09.615Z,52.20
2023-02-06T06:40:09.820Z,51.70
2023-02-06T06:41:09.605Z,45.90
2023-02-06T06:42:09.917Z,61.90
2023-02-06T06:43:09.534Z,68.80
2023-02-06T06:44:09.542Z,57.10
2023-02-06T06:45:09.571Z,63.50
2023-02-06T06:46:09.660Z,56.10
2023-02-06T06:47:09.521Z,64.70
2023-02-06T06:48:09.599Z,60.50
2023-02-06T06:49:09.760Z,62.60
2023-02-06T06:50:09.678Z,61.80
2023-02-06T06:51:09.505Z,64.00
2023-02-06T06:52:23.096Z,67.20
2023-02-06T06:53:09.984Z,69.80
2023-02-06T06:54:09.462Z,72.80
2023-02-06T06:55:09.997Z,67.90
2023-02-06T06:56:09.432Z,67.70
2023-02-06T06:57:10.893Z,79.10
2023-02-06T06:58:09.798Z,83.70
2023-02-06T06:59:09.520Z,86.20
2023-02-06T07:00:10.016Z,95.90
2023-02-06T07:01:09.848Z,82.50
2023-02-06T07:02:09.408Z,106.10
2023-02-06T07:03:09.564Z,109.30
2023-02-06T07:04:10.308Z,110.90
2023-02-06T07:05:09.565Z,99.10
2023-02-06T07:06:09.867Z,82.80
2023-02-06T07:07:09.556Z,110.30
2023-02-06T07:08:10.180Z,108.30
2023-02-06T07:09:10.340Z,102.00
2023-02-06T07:10:09.644Z,106.90
2023-02-06T07:11:09.333Z,84.10
2023-02-06T07:12:09.348Z,80.90
2023-02-06T07:13:09.361Z,84.20
2023-02-06T07:14:09.409Z,102.70
2023-02-06T07:15:09.465Z,88.30
2023-02-06T07:16:09.362Z,111.30
2023-02-06T07:17:09.348Z,112.40
2023-02-06T07:18:11.430Z,106.70
2023-02-06T07:19:09.337Z,94.00
2023-02-06T07:20:09.352Z,101.40
2023-02-06T07:21:09.362Z,90.10
2023-02-06T07:22:09.372Z,109.90
2023-02-06T07:23:09.272Z,116.30
2023-02-06T07:24:09.271Z,129.50
2023-02-06T07:25:09.394Z,107.70
2023-02-06T07:26:09.272Z,122.70
2023-02-06T07:27:09.296Z,118.30
2023-02-06T07:28:09.280Z,110.00
2023-02-06T07:29:09.330Z,122.30
2023-02-06T07:30:09.331Z,102.60
2023-02-06T07:31:09.350Z,112.60
2023-02-06T07:32:09.365Z,131.00
2023-02-06T07:33:09.239Z,107.30
2023-02-06T07:34:09.386Z,150.70
2023-02-06T07:35:09.250Z,136.30
2023-02-06T07:36:09.417Z,133.40
2023-02-06T07:37:09.434Z,131.30
2023-02-06T07:38:09.438Z,133.50
2023-02-06T07:39:09.457Z,140.90
2023-02-06T07:40:09.302Z,129.20
2023-02-06T07:41:10.367Z,120.40
2023-02-06T07:42:09.214Z,121.80
2023-02-06T07:43:09.257Z,104.30
2023-02-06T07:44:09.299Z,138.60
2023-02-06T07:45:09.350Z,135.50
2023-02-06T07:46:09.160Z,99.00
2023-02-06T07:47:09.137Z,133.70
2023-02-06T07:48:09.135Z,142.30
2023-02-06T07:49:09.144Z,148.30
2023-02-06T07:50:09.152Z,101.20
2023-02-06T07:51:09.137Z,143.60
2023-02-06T07:52:09.170Z,177.40
2023-02-06T07:53:09.177Z,135.00
2023-02-06T07:54:09.252Z,127.60
2023-02-06T07:55:09.213Z,127.00
2023-02-06T07:56:09.333Z,113.10
2023-02-06T07:57:09.374Z,104.80
2023-02-06T07:58:09.421Z,115.60
2023-02-06T07:59:09.371Z,107.90
2023-02-06T08:00:09.511Z,104.30
2023-02-06T08:01:09.177Z,96.90
2023-02-06T08:02:09.610Z,99.50
2023-02-06T08:03:09.433Z,112.30
2023-02-06T08:04:09.183Z,116.00
2023-02-06T08:05:09.392Z,114.80
2023-02-06T08:06:09.799Z,116.30
2023-02-06T08:07:09.820Z,119.60
2023-02-06T08:08:09.493Z,110.80
2023-02-06T08:09:09.056Z,104.20
2023-02-06T08:10:09.048Z,100.30
2023-02-06T08:11:09.504Z,103.60
2023-02-06T08:12:11.743Z,101.70
2023-02-06T08:13:09.837Z,93.80
2023-02-06T08:14:09.499Z,97.90
2023-02-06T08:15:09.896Z,100.90
2023-02-06T08:16:09.212Z,98.80
2023-02-06T08:17:09.016Z,93.90
2023-02-06T08:18:08.990Z,84.70
2023-02-06T08:19:09.546Z,63.30
2023-02-06T08:20:08.944Z,67.80
2023-02-06T08:21:09.014Z,86.00
2023-02-06T08:22:08.936Z,76.00
2023-02-06T08:23:09.090Z,78.00
2023-02-06T08:24:09.826Z,82.20
2023-02-06T08:25:09.709Z,72.20
2023-02-06T08:26:09.826Z,83.60
2023-02-06T08:27:08.914Z,73.20
2023-02-06T08:28:09.043Z,86.00
2023-02-06T08:29:08.861Z,76.30
2023-02-06T08:30:08.860Z,85.40
2023-02-06T08:31:09.016Z,92.00
2023-02-06T08:32:08.876Z,95.90
2023-02-06T08:33:08.921Z,89.10
2023-02-06T08:34:08.930Z,83.10
2023-02-06T08:35:08.840Z,100.50
2023-02-06T08:36:08.830Z,98.50
2023-02-06T08:37:08.850Z,95.00
2023-02-06T08:38:08.900Z,86.70
2023-02-06T08:39:08.940Z,91.80
2023-02-06T08:40:08.990Z,88.30
2023-02-06T08:41:08.970Z,80.80
2023-02-06T08:42:09.072Z,76.80
2023-02-06T08:43:09.143Z,76.10
2023-02-06T08:44:09.178Z,69.00
2023-02-06T08:45:08.908Z,66.70
2023-02-06T08:46:09.125Z,76.80
2023-02-06T08:47:10.751Z,72.60
2023-02-06T08:48:09.068Z,68.10
2023-02-06T08:49:09.106Z,61.50
2023-02-06T08:50:08.739Z,68.20
2023-02-06T08:51:09.175Z,53.20
2023-02-06T08:52:09.573Z,59.70
2023-02-06T08:53:08.990Z,56.30
2023-02-06T08:54:09.156Z,66.30
2023-02-06T08:55:08.754Z,63.10
2023-02-06T08:56:08.968Z,66.90
2023-02-06T08:57:08.814Z,66.30
2023-02-06T08:58:08.758Z,68.90
2023-02-06T08:59:09.504Z,73.60
2023-02-06T09:00:09.579Z,76.00
2023-02-06T09:01:09.463Z,68.70
2023-02-06T09:02:08.771Z,74.40
2023-02-06T09:03:08.640Z,64.70
2023-02-06T09:04:08.663Z,65.30
2023-02-06T09:05:08.633Z,76.20
2023-02-06T09:06:10.390Z,65.90
2023-02-06T09:07:08.648Z,74.30
2023-02-06T09:08:08.645Z,82.90
2023-02-06T09:09:08.654Z,81.70
2023-02-06T09:10:16.285Z,91.90
2023-02-06T09:11:08.665Z,99.50
2023-02-06T09:12:08.592Z,88.60
2023-02-06T09:13:08.580Z,108.90
2023-02-06T09:14:08.589Z,105.50
2023-02-06T09:15:08.600Z,90.40
2023-02-06T09:16:08.723Z,83.70
2023-02-06T09:17:08.550Z,105.60
2023-02-06T09:18:08.545Z,91.30
2023-02-06T09:19:08.649Z,104.40
2023-02-06T09:20:08.665Z,98.40
2023-02-06T09:21:08.678Z,77.30
2023-02-06T09:22:08.556Z,90.80
2023-02-06T09:23:08.700Z,87.50
2023-02-06T09:24:08.725Z,91.30
2023-02-06T09:25:08.727Z,73.80
2023-02-06T09:26:08.736Z,89.60
2023-02-06T09:27:08.862Z,84.10
2023-02-06T09:28:08.526Z,78.30
2023-02-06T09:29:08.779Z,84.30
2023-02-06T09:30:08.587Z,88.20
2023-02-06T09:31:08.936Z,86.10
2023-02-06T09:32:08.470Z,87.40
2023-02-06T09:33:08.506Z,103.80
2023-02-06T09:34:08.439Z,91.80
2023-02-06T09:35:08.649Z,91.50
2023-02-06T09:36:08.627Z,66.70
2023-02-06T09:37:08.668Z,87.70
2023-02-06T09:38:08.411Z,71.80
2023-02-06T09:39:08.757Z,73.00
2023-02-06T09:40:08.805Z,79.00
2023-02-06T09:41:08.387Z,74.50
2023-02-06T09:42:08.431Z,75.70
2023-02-06T09:43:08.392Z,59.20
2023-02-06T09:44:08.413Z,52.50
2023-02-06T09:45:08.455Z,58.90
2023-02-06T09:46:08.523Z,63.70
2023-02-06T09:47:08.551Z,68.40
2023-02-06T09:48:08.602Z,55.80
2023-02-06T09:49:08.492Z,64.10
2023-02-06T09:50:08.333Z,58.40
2023-02-06T09:51:08.342Z,63.30
2023-02-06T09:52:08.783Z,63.30
2023-02-06T09:53:08.326Z,62.80
2023-02-06T09:54:08.331Z,48.90
2023-02-06T09:55:08.307Z,52.00
2023-02-06T09:56:08.300Z,54.20
2023-02-06T09:57:08.308Z,51.70
2023-02-06T09:58:08.311Z,49.90
2023-02-06T09:59:08.339Z,46.30
2023-02-06T10:00:08.359Z,48.00
2023-02-06T10:01:08.366Z,38.40
2023-02-06T10:02:08.360Z,46.20
2023-02-06T10:03:08.382Z,43.60
2023-02-06T10:04:08.413Z,41.60
2023-02-06T10:05:08.385Z,42.00
2023-02-06T10:06:08.232Z,45.20
2023-02-06T10:07:08.265Z,38.00
2023-02-06T10:08:08.438Z,47.10
2023-02-06T10:09:08.233Z,47.40
2023-02-06T10:10:08.278Z,46.80
2023-02-06T10:11:08.239Z,49.00
2023-02-06T10:12:08.247Z,47.30
2023-02-06T10:13:08.175Z,45.30
2023-02-06T10:14:08.187Z,51.80
2023-02-06T10:15:08.181Z,50.10
2023-02-06T10:16:09.495Z,53.90
2023-02-06T10:17:08.205Z,47.20
2023-02-06T10:18:08.235Z,45.50
2023-02-06T10:19:08.200Z,47.20
2023-02-06T10:20:08.154Z,42.20
2023-02-06T10:21:08.145Z,40.10
2023-02-06T10:22:08.197Z,47.00
2023-02-06T10:23:08.236Z,46.30
2023-02-06T10:24:08.274Z,50.10
2023-02-06T10:25:08.315Z,46.30
2023-02-06T10:26:08.325Z,44.10
2023-02-06T10:27:08.092Z,47.90
2023-02-06T10:28:08.216Z,41.60
2023-02-06T10:29:08.113Z,40.60
2023-02-06T10:30:08.189Z,45.40
2023-02-06T10:31:08.210Z,46.50
2023-02-06T10:32:08.123Z,48.50
2023-02-06T10:33:14.394Z,50.80
2023-02-06T10:34:08.335Z,44.40
2023-02-06T10:35:08.416Z,45.80
2023-02-06T10:36:08.044Z,46.20
2023-02-06T10:37:08.466Z,50.30
2023-02-06T10:38:08.494Z,55.10
2023-02-06T10:39:08.021Z,43.60
2023-02-06T10:40:08.021Z,48.70
2023-02-06T10:41:08.294Z,51.30
2023-02-06T10:42:08.443Z,53.90
2023-02-06T10:43:08.047Z,44.10
2023-02-06T10:44:08.123Z,51.30
2023-02-06T10:45:19.288Z,40.90
2023-02-06T10:46:08.184Z,44.20
2023-02-06T10:47:08.475Z,44.40
2023-02-06T10:48:08.625Z,45.20
2023-02-06T10:49:07.954Z,44.00
2023-02-06T10:50:07.986Z,43.40
2023-02-06T10:51:08.304Z,51.30
2023-02-06T10:52:07.962Z,45.80
2023-02-06T10:53:08.688Z,49.30
2023-02-06T10:54:07.962Z,44.30
2023-02-06T10:55:07.923Z,44.80
2023-02-06T10:56:07.930Z,42.00
2023-02-06T10:57:07.933Z,44.80
2023-02-06T10:58:07.925Z,44.50
2023-02-06T10:59:07.931Z,49.70
2023-02-06T11:00:07.971Z,48.10
2023-02-06T11:01:23.741Z,45.10
2023-02-06T11:02:08.135Z,52.10
2023-02-06T11:03:08.688Z,44.20
2023-02-06T11:04:08.150Z,44.90
2023-02-06T11:05:08.194Z,46.20
2023-02-06T11:06:07.923Z,46.40
2023-02-06T11:07:08.068Z,47.90
2023-02-06T11:08:08.139Z,50.00
2023-02-06T11:09:08.379Z,42.40
2023-02-06T11:10:07.845Z,48.20
2023-02-06T11:11:07.959Z,45.60
2023-02-06T11:12:08.395Z,45.50
2023-02-06T11:13:07.847Z,48.40
2023-02-06T11:14:07.812Z,50.10
2023-02-06T11:15:08.270Z,40.00
2023-02-06T11:16:07.965Z,50.40
2023-02-06T11:17:07.796Z,43.20
2023-02-06T11:18:08.018Z,41.50
2023-02-06T11:19:08.613Z,49.40
2023-02-06T11:20:07.775Z,43.50
2023-02-06T11:21:08.346Z,45.10
2023-02-06T11:22:07.996Z,50.60
2023-02-06T11:23:07.742Z,46.20
2023-02-06T11:24:08.652Z,45.50
2023-02-06T11:25:07.744Z,47.30
2023-02-06T11:26:07.764Z,45.20
2023-02-06T11:27:07.818Z,47.10
2023-02-06T11:28:07.865Z,42.90
2023-02-06T11:29:07.927Z,37.70
2023-02-06T11:30:07.964Z,45.30
2023-02-06T11:31:08.034Z,43.60
2023-02-06T11:32:08.043Z,41.30
2023-02-06T11:33:07.952Z,43.40
2023-02-06T11:34:08.193Z,42.80
2023-02-06T11:35:07.995Z,44.80
2023-02-06T11:36:07.684Z,45.60
2023-02-06T11:37:07.691Z,49.40
2023-02-06T11:38:07.742Z,47.70
2023-02-06T11:39:07.674Z,47.80
2023-02-06T11:40:07.824Z,48.10
2023-02-06T11:41:07.637Z,45.30
2023-02-06T11:42:07.631Z,43.40
2023-02-06T11:43:07.622Z,44.50
2023-02-06T11:44:07.642Z,40.70
2023-02-06T11:45:07.609Z,42.20
2023-02-06T11:46:07.733Z,36.50
2023-02-06T11:47:07.599Z,38.50
2023-02-06T11:48:07.670Z,34.30
2023-02-06T11:49:07.680Z,39.50
2023-02-06T11:50:07.679Z,34.10
2023-02-06T11:51:07.687Z,34.90
2023-02-06T11:52:07.702Z,35.90
2023-02-06T11:53:07.707Z,35.40
2023-02-06T11:54:07.734Z,36.00
2023-02-06T11:55:07.742Z,35.10
2023-02-06T11:56:07.536Z,37.90
2023-02-06T11:57:07.798Z,37.50
2023-02-06T11:58:07.786Z,36.60
2023-02-06T11:59:07.798Z,35.10
2023-02-06T12:00:07.562Z,39.00
2023-02-06T12:01:07.806Z,38.90
2023-02-06T12:02:07.589Z,39.90
2023-02-06T12:03:07.876Z,41.90
2023-02-06T12:04:07.559Z,36.80
2023-02-06T12:05:07.627Z,34.50
2023-02-06T12:06:07.887Z,34.90
2023-02-06T12:07:07.784Z,36.50
2023-02-06T12:08:07.560Z,37.40
2023-02-06T12:09:07.783Z,36.10
2023-02-06T12:10:07.934Z,31.80
2023-02-06T12:11:07.444Z,31.20
2023-02-06T12:12:07.444Z,30.30
2023-02-06T12:13:07.434Z,27.70
2023-02-06T12:14:07.425Z,24.50
2023-02-06T12:15:29.444Z,28.30
2023-02-06T12:16:07.506Z,27.60
2023-02-06T12:17:07.471Z,26.00
2023-02-06T12:18:07.582Z,29.20
2023-02-06T12:19:07.631Z,31.00
2023-02-06T12:20:07.412Z,30.30
2023-02-06T12:21:07.437Z,29.60
2023-02-06T12:22:07.461Z,24.60
2023-02-06T12:23:07.360Z,27.40
2023-02-06T12:24:07.414Z,23.20
2023-02-06T12:25:07.442Z,28.20
2023-02-06T12:26:07.471Z,25.60
2023-02-06T12:27:07.329Z,25.30
2023-02-06T12:28:07.572Z,27.20
2023-02-06T12:29:07.499Z,26.80
2023-02-06T12:30:07.517Z,25.40
2023-02-06T12:31:07.512Z,25.20
2023-02-06T12:32:07.527Z,26.90
2023-02-06T12:33:07.575Z,24.80
2023-02-06T12:34:07.405Z,28.70
2023-02-06T12:35:07.553Z,27.00
2023-02-06T12:36:07.284Z,27.20
2023-02-06T12:37:07.557Z,26.80
2023-02-06T12:38:07.431Z,25.40
2023-02-06T12:39:07.583Z,28.90
2023-02-06T12:40:07.602Z,27.40
2023-02-06T12:41:07.446Z,27.80
2023-02-06T12:42:07.606Z,26.40
2023-02-06T12:43:07.529Z,27.40
2023-02-06T12:44:07.629Z,29.30
2023-02-06T12:45:08.040Z,26.30
2023-02-06T12:46:07.895Z,28.00
2023-02-06T12:47:07.312Z,29.40
2023-02-06T12:48:08.063Z,29.70
2023-02-06T12:49:07.311Z,31.30
2023-02-06T12:50:07.319Z,29.80
2023-02-06T12:51:07.275Z,29.40
2023-02-06T12:52:07.265Z,27.10
2023-02-06T12:53:07.175Z,29.10
2023-02-06T12:54:07.229Z,28.60
2023-02-06T12:55:07.276Z,31.50